createdAt,value
2023-05-25T00:01:05.905Z,15.47
2023-05-25T00:04:26.987Z,15.28
2023-05-25T00:06:24.058Z,15.44
2023-05-25T00:08:23.860Z,15.37
2023-05-25T00:10:24.880Z,15.4
2023-05-25T00:12:23.903Z,15.37
2023-05-25T00:14:23.889Z,15.4
2023-05-25T00:16:24.027Z,15.39
2023-05-25T00:18:59.420Z,15.37
2023-05-25T00:20:59.413Z,15.26
2023-05-25T00:22:59.469Z,15.32
2023-05-25T00:24:59.436Z,15.3
2023-05-25T00:26:59.407Z,15.27
2023-05-25T00:28:59.717Z,15.29
2023-05-25T00:30:59.506Z,15.29
2023-05-25T00:34:34.259Z,15.25
2023-05-25T00:36:34.173Z,15.2
2023-05-25T00:38:34.193Z,15.25
2023-05-25T00:40:34.121Z,15.23
2023-05-25T00:42:34.132Z,15.2
2023-05-25T00:44:34.197Z,15.24
2023-05-25T00:46:34.152Z,15.22
2023-05-25T00:49:28.887Z,15.02
2023-05-25T00:51:28.867Z,15.02
2023-05-25T00:53:28.890Z,15.07
2023-05-25T00:55:28.919Z,15.09
2023-05-25T00:57:28.868Z,15.11
2023-05-25T00:59:28.931Z,15.08
2023-05-25T01:01:28.903Z,15.04
2023-05-25T01:05:10.019Z,15.03
2023-05-25T01:07:09.936Z,15.01
2023-05-25T01:09:09.890Z,14.97
2023-05-25T01:11:09.906Z,14.98
2023-05-25T01:13:09.864Z,15.01
2023-05-25T01:15:09.888Z,15
2023-05-25T01:17:09.938Z,14.84
2023-05-25T01:20:27.029Z,14.95
2023-05-25T01:22:27.301Z,14.97
2023-05-25T01:24:27.300Z,14.92
2023-05-25T01:26:26.911Z,14.72
2023-05-25T01:28:26.934Z,14.83
2023-05-25T01:30:27.016Z,14.83
2023-05-25T01:32:27.131Z,14.78
2023-05-25T01:34:44.255Z,14.7
2023-05-25T01:36:44.198Z,14.68
2023-05-25T01:38:44.260Z,14.65
2023-05-25T01:40:44.198Z,14.63
2023-05-25T01:42:44.240Z,14.63
2023-05-25T01:44:44.250Z,14.63
2023-05-25T01:46:44.259Z,14.61
2023-05-25T01:48:44.243Z,14.58
2023-05-25T01:50:35.457Z,14.59
2023-05-25T01:52:35.484Z,14.59
2023-05-25T01:54:35.473Z,14.58
2023-05-25T01:56:35.461Z,14.56
2023-05-25T01:58:35.450Z,14.57
2023-05-25T02:00:35.514Z,14.5
2023-05-25T02:02:35.500Z,14.51
2023-05-25T02:05:16.290Z,14.52
2023-05-25T02:07:16.238Z,14.47
2023-05-25T02:09:16.237Z,14.4
2023-05-25T02:11:16.249Z,14.37
2023-05-25T02:13:16.270Z,14.35
2023-05-25T02:15:16.238Z,14.32
2023-05-25T02:17:16.223Z,14.23
2023-05-25T02:20:25.255Z,14.28
2023-05-25T02:22:25.188Z,14.3
2023-05-25T02:24:25.196Z,14.3
2023-05-25T02:26:25.203Z,14.28
2023-05-25T02:28:25.226Z,14.28
2023-05-25T02:30:25.207Z,14.24
2023-05-25T02:32:25.226Z,14.22
2023-05-25T02:35:58.096Z,14.23
2023-05-25T02:37:58.104Z,14.16
2023-05-25T02:39:58.056Z,14.21
2023-05-25T02:41:58.101Z,14.16
2023-05-25T02:43:58.128Z,14.17
2023-05-25T02:45:58.077Z,14.12
2023-05-25T02:47:58.102Z,14.11
2023-05-25T02:50:57.846Z,14.14
2023-05-25T02:52:57.897Z,14.18
2023-05-25T02:54:57.835Z,14.23
2023-05-25T02:56:57.860Z,14.2
2023-05-25T02:58:57.817Z,14.21
2023-05-25T03:00:57.875Z,14.16
2023-05-25T03:02:57.893Z,14.15
2023-05-25T03:05:49.111Z,14.22
2023-05-25T03:07:49.127Z,14.27
2023-05-25T03:09:49.273Z,14.35
2023-05-25T03:11:49.145Z,14.33
2023-05-25T03:13:49.126Z,14.38
2023-05-25T03:15:49.106Z,14.4
2023-05-25T03:17:49.365Z,14.52
2023-05-25T03:19:49.163Z,14.57
2023-05-25T03:21:42.259Z,14.53
2023-05-25T03:23:42.280Z,14.64
2023-05-25T03:25:42.412Z,15.45
2023-05-25T03:27:42.249Z,16.52
2023-05-25T03:29:42.409Z,17.12
2023-05-25T03:31:42.369Z,17.43
2023-05-25T03:33:42.520Z,17.58
2023-05-25T03:36:41.316Z,17.71
2023-05-25T03:38:41.349Z,19.02
2023-05-25T03:40:41.313Z,19.88
2023-05-25T03:42:41.375Z,20.56
2023-05-25T03:44:41.482Z,21.09
2023-05-25T03:46:41.324Z,21.68
2023-05-25T03:48:41.364Z,22.26
2023-05-25T03:51:56.737Z,23.01
2023-05-25T03:53:56.774Z,23.09
2023-05-25T03:55:56.717Z,23.16
2023-05-25T03:57:56.809Z,23.28
2023-05-25T03:59:56.782Z,23.02
2023-05-25T04:01:56.718Z,20.97
2023-05-25T04:03:56.971Z,19.83
2023-05-25T04:06:34.376Z,19.34
2023-05-25T04:08:34.352Z,19.19
2023-05-25T04:10:34.367Z,18.56
2023-05-25T04:12:34.404Z,18.11
2023-05-25T04:14:34.412Z,17.74
2023-05-25T04:16:34.398Z,17.67
2023-05-25T04:18:34.353Z,18.55
2023-05-25T04:21:53.085Z,21.72
2023-05-25T04:23:53.089Z,21.27
2023-05-25T04:25:53.086Z,21.43
2023-05-25T04:27:53.253Z,20.81
2023-05-25T04:29:53.148Z,20.06
2023-05-25T04:31:53.124Z,20
2023-05-25T04:33:53.071Z,20.27
2023-05-25T04:37:07.532Z,20.47
2023-05-25T04:39:07.667Z,20.37
2023-05-25T04:41:07.492Z,20.04
2023-05-25T04:43:07.530Z,20.16
2023-05-25T04:45:07.533Z,20.64
2023-05-25T04:47:07.562Z,21.17
2023-05-25T04:49:07.563Z,22.21
2023-05-25T04:52:24.969Z,23.76
2023-05-25T04:54:25.326Z,24.48
2023-05-25T04:56:25.068Z,24.98
2023-05-25T04:58:24.939Z,25.58
2023-05-25T05:00:24.993Z,25.09
2023-05-25T05:02:25.086Z,24.67
2023-05-25T05:04:25.019Z,24.5
2023-05-25T05:07:18.418Z,23.9
2023-05-25T05:09:18.254Z,23.63
2023-05-25T05:11:18.472Z,23.78
2023-05-25T05:13:18.354Z,24.06
2023-05-25T05:15:18.238Z,24.23
2023-05-25T05:17:18.338Z,23.76
2023-05-25T05:19:18.236Z,23.56
2023-05-25T05:22:19.206Z,24.02
2023-05-25T05:24:19.195Z,23.62
2023-05-25T05:26:19.227Z,23.57
2023-05-25T05:28:19.231Z,23.35
2023-05-25T05:30:19.198Z,23.21
2023-05-25T05:32:19.273Z,23.63
2023-05-25T05:34:19.442Z,23.46
2023-05-25T05:36:19.182Z,23.16
2023-05-25T05:37:56.716Z,23.31
2023-05-25T05:39:56.671Z,23.61
2023-05-25T05:41:56.740Z,23.15
2023-05-25T05:43:56.729Z,23.64
2023-05-25T05:45:56.680Z,23.95
2023-05-25T05:47:56.754Z,23.73
2023-05-25T05:49:56.749Z,22.97
2023-05-25T05:53:33.398Z,24.66
2023-05-25T05:55:33.401Z,24.55
2023-05-25T05:57:33.430Z,25.39
2023-05-25T05:59:33.398Z,25.3
2023-05-25T06:01:33.480Z,25.33
2023-05-25T06:03:33.426Z,25.13
2023-05-25T06:05:33.492Z,25.27
2023-05-25T06:07:45.733Z,26.26
2023-05-25T06:09:45.738Z,26.58
2023-05-25T06:11:45.673Z,26.68
2023-05-25T06:13:46.696Z,26.75
2023-05-25T06:15:45.912Z,27.1
2023-05-25T06:17:45.884Z,26.91
2023-05-25T06:19:45.713Z,26.53
2023-05-25T06:21:45.730Z,26.06
2023-05-25T06:22:56.593Z,26.53
2023-05-25T06:24:56.641Z,26.58
2023-05-25T06:26:56.638Z,26.41
2023-05-25T06:28:56.570Z,26.14
2023-05-25T06:30:56.554Z,25.76
2023-05-25T06:32:56.661Z,25.1
2023-05-25T06:34:56.579Z,25.05
2023-05-25T06:36:56.682Z,24.99
2023-05-25T06:38:36.918Z,24.84
2023-05-25T06:40:36.881Z,24.62
2023-05-25T06:42:36.883Z,24.37
2023-05-25T06:44:36.908Z,24.51
2023-05-25T06:46:36.934Z,24.53
2023-05-25T06:48:36.890Z,24.38
2023-05-25T06:50:36.878Z,24.28
2023-05-25T06:53:22.183Z,24.09
2023-05-25T06:55:22.125Z,24.89
2023-05-25T06:57:22.168Z,24.73
2023-05-25T06:59:22.119Z,24.7
2023-05-25T07:01:22.251Z,24.67
2023-05-25T07:03:22.165Z,25.08
2023-05-25T07:05:22.319Z,25.6
2023-05-25T07:07:22.160Z,25.08
2023-05-25T07:08:37.356Z,24.89
2023-05-25T07:10:37.265Z,24.34
2023-05-25T07:12:37.301Z,24.59
2023-05-25T07:14:37.272Z,24.46
2023-05-25T07:16:37.311Z,24.58
2023-05-25T07:18:37.316Z,24.64
2023-05-25T07:20:37.314Z,24.73
2023-05-25T07:22:37.262Z,25.47
2023-05-25T07:24:15.351Z,26.07
2023-05-25T07:26:15.310Z,25.99
2023-05-25T07:28:15.360Z,26.28
2023-05-25T07:30:15.351Z,26.71
2023-05-25T07:32:15.314Z,26.62
2023-05-25T07:34:15.351Z,26.2
2023-05-25T07:36:15.283Z,26.32
2023-05-25T07:38:57.674Z,26.68
2023-05-25T07:40:57.583Z,26.73
2023-05-25T07:42:57.837Z,26.59
2023-05-25T07:44:57.661Z,26.9
2023-05-25T07:46:57.807Z,27.16
2023-05-25T07:48:57.601Z,27.44
2023-05-25T07:50:57.531Z,27.65
2023-05-25T07:54:21.290Z,27.19
2023-05-25T07:56:21.316Z,26.36
2023-05-25T07:58:21.243Z,25.15
2023-05-25T08:00:21.246Z,24.83
2023-05-25T08:02:21.294Z,24.12
2023-05-25T08:04:21.271Z,23.9
2023-05-25T08:06:21.252Z,24.18
2023-05-25T08:09:36.091Z,24.41
2023-05-25T08:11:36.132Z,24.5
2023-05-25T08:13:36.142Z,24.29
2023-05-25T08:15:36.092Z,24.37
2023-05-25T08:17:36.113Z,24.5
2023-05-25T08:19:36.068Z,24.18
2023-05-25T08:21:36.103Z,23.01
2023-05-25T08:25:09.530Z,22.66
2023-05-25T08:27:09.524Z,22.63
2023-05-25T08:29:09.476Z,21.96
2023-05-25T08:31:09.853Z,22.41
2023-05-25T08:33:09.515Z,22.16
2023-05-25T08:35:09.463Z,21.42
2023-05-25T08:37:09.600Z,21.8
2023-05-25T08:40:03.826Z,22.17
2023-05-25T08:42:03.828Z,23.37
2023-05-25T08:44:03.852Z,23.3
2023-05-25T08:46:03.832Z,22.16
2023-05-25T08:48:03.879Z,21.73
2023-05-25T08:50:03.831Z,22.9
2023-05-25T08:52:03.836Z,22.18
2023-05-25T08:55:01.133Z,22.88
2023-05-25T08:57:01.134Z,22.24
2023-05-25T08:59:01.131Z,22.04
2023-05-25T09:01:01.161Z,20.97
2023-05-25T09:03:01.287Z,21.92
2023-05-25T09:05:01.475Z,21.24
2023-05-25T09:07:09.353Z,21.74
2023-05-25T09:10:20.506Z,23.12
2023-05-25T09:12:20.442Z,22.3
2023-05-25T09:14:20.397Z,20.27
2023-05-25T09:16:20.445Z,20.89
2023-05-25T09:18:20.443Z,20.6
2023-05-25T09:20:20.457Z,20.98
2023-05-25T09:22:20.377Z,21.2
2023-05-25T09:25:36.553Z,21.54
2023-05-25T09:27:36.384Z,21.46
2023-05-25T09:29:36.399Z,21.04
2023-05-25T09:31:36.414Z,20.61
2023-05-25T09:33:37.126Z,21.35
2023-05-25T09:35:36.452Z,21.43
2023-05-25T09:37:36.493Z,21.7
2023-05-25T09:41:00.360Z,22.94
2023-05-25T09:43:00.273Z,22.42
2023-05-25T09:45:00.296Z,20.92
2023-05-25T09:47:00.339Z,21.46
2023-05-25T09:49:00.281Z,21.67
2023-05-25T09:51:00.297Z,22.9
2023-05-25T09:53:00.337Z,22.09
2023-05-25T09:55:55.074Z,23.04
2023-05-25T09:57:55.087Z,24.36
2023-05-25T09:59:55.110Z,22.96
2023-05-25T10:01:55.131Z,24.43
2023-05-25T10:04:03.351Z,24.33
2023-05-25T10:05:55.036Z,24.11
2023-05-25T10:07:55.077Z,23.14
2023-05-25T10:10:54.218Z,23.6
2023-05-25T10:12:54.249Z,23.81
2023-05-25T10:14:54.229Z,24.08
2023-05-25T10:16:54.253Z,24.29
2023-05-25T10:18:54.382Z,23.92
2023-05-25T10:20:54.405Z,24.67
2023-05-25T10:22:54.256Z,24.34
2023-05-25T10:25:54.302Z,24.42
2023-05-25T10:27:54.391Z,24.09
2023-05-25T10:29:54.098Z,24.38
2023-05-25T10:31:54.139Z,22.89
2023-05-25T10:33:54.049Z,23.53
2023-05-25T10:36:02.890Z,22.75
2023-05-25T10:37:54.076Z,22.18
2023-05-25T10:40:59.800Z,23.27
2023-05-25T10:42:59.846Z,23.39
2023-05-25T10:44:59.826Z,23.27
2023-05-25T10:46:59.815Z,24.16
2023-05-25T10:48:59.794Z,24.61
2023-05-25T10:50:59.872Z,24.61
2023-05-25T10:53:00.039Z,25.34
2023-05-25T10:56:08.398Z,24.89
2023-05-25T10:58:08.413Z,25.12
2023-05-25T11:00:08.562Z,24.94
2023-05-25T11:02:09.394Z,24.67
2023-05-25T11:04:08.369Z,24.47
2023-05-25T11:06:08.529Z,24.17
2023-05-25T11:08:08.796Z,24.04
2023-05-25T11:11:41.405Z,24.3
2023-05-25T11:13:41.575Z,24.46
2023-05-25T11:15:41.614Z,24.5
2023-05-25T11:17:41.319Z,24.21
2023-05-25T11:19:41.244Z,24.28
2023-05-25T11:21:41.421Z,24.81
2023-05-25T11:23:41.238Z,25
2023-05-25T11:26:44.611Z,25.42
2023-05-25T11:28:44.547Z,25.27
2023-05-25T11:30:44.807Z,25.25
2023-05-25T11:32:44.608Z,25.52
2023-05-25T11:34:44.679Z,25.8
2023-05-25T11:36:44.597Z,25.61
2023-05-25T11:38:50.002Z,25.75
2023-05-25T11:41:40.158Z,25.9
2023-05-25T11:43:41.186Z,26.23
2023-05-25T11:45:40.121Z,25.97
2023-05-25T11:47:40.151Z,25.62
2023-05-25T11:49:40.239Z,25.26
2023-05-25T11:51:40.115Z,25.45
2023-05-25T11:53:40.127Z,25.17
2023-05-25T11:56:41.225Z,25.81
2023-05-25T11:58:41.146Z,25.72
2023-05-25T12:00:41.158Z,25.23
2023-05-25T12:02:41.286Z,25.09
2023-05-25T12:04:41.313Z,25.38
2023-05-25T12:06:41.217Z,26.1
2023-05-25T12:08:41.161Z,26.14
2023-05-25T12:10:41.119Z,26.16
2023-05-25T12:12:04.965Z,26.22
2023-05-25T12:14:04.903Z,26.28
2023-05-25T12:16:04.995Z,26.09
2023-05-25T12:18:04.974Z,26.14
2023-05-25T12:20:04.957Z,25.91
2023-05-25T12:22:04.926Z,25.73
2023-05-25T12:24:04.917Z,25.73
2023-05-25T12:27:44.267Z,26.03
2023-05-25T12:29:44.850Z,25.79
2023-05-25T12:31:44.688Z,25.7
2023-05-25T12:33:44.381Z,25.91
2023-05-25T12:35:44.519Z,25.69
2023-05-25T12:37:44.227Z,25.42
2023-05-25T12:39:44.249Z,25.62
2023-05-25T12:42:27.336Z,25.61
2023-05-25T12:44:27.339Z,25.6
2023-05-25T12:46:27.314Z,25.23
2023-05-25T12:48:27.328Z,25.49
2023-05-25T12:50:27.346Z,26.08
2023-05-25T12:52:27.342Z,25.63
2023-05-25T12:54:27.379Z,26.17
2023-05-25T12:58:08.206Z,26.11
2023-05-25T13:00:08.272Z,26.05
2023-05-25T13:02:08.343Z,26.34
2023-05-25T13:04:08.204Z,26.06
2023-05-25T13:06:08.151Z,26.07
2023-05-25T13:08:08.216Z,26.17
2023-05-25T13:10:08.275Z,26.39
2023-05-25T13:12:54.258Z,26.35
2023-05-25T13:14:54.250Z,26.35
2023-05-25T13:16:54.337Z,26.18
2023-05-25T13:18:54.259Z,25.32
2023-05-25T13:20:56.548Z,25.46
2023-05-25T13:22:54.218Z,25.7
2023-05-25T13:24:54.268Z,24.86
2023-05-25T13:28:00.126Z,24.95
2023-05-25T13:30:00.036Z,25.08
2023-05-25T13:32:00.217Z,25.05
2023-05-25T13:34:00.039Z,25.03
2023-05-25T13:36:00.222Z,24.92
2023-05-25T13:38:00.054Z,24.75
2023-05-25T13:40:00.158Z,24.73
2023-05-25T13:42:54.918Z,24.56
2023-05-25T13:44:54.922Z,24.59
2023-05-25T13:46:54.951Z,24.74
2023-05-25T13:48:55.008Z,24.83
2023-05-25T13:50:54.953Z,24.7
2023-05-25T13:52:54.906Z,24.56
2023-05-25T13:54:54.886Z,24.33
2023-05-25T13:56:54.960Z,24.51
2023-05-25T13:58:15.385Z,24.39
2023-05-25T14:02:18.006Z,24.47
2023-05-25T14:04:15.450Z,24.57
2023-05-25T14:06:18.267Z,24.55
2023-05-25T14:08:15.799Z,24.73
2023-05-25T14:10:15.385Z,24.78
2023-05-25T14:13:49.627Z,25.06
2023-05-25T14:15:49.699Z,25.33
2023-05-25T14:17:49.662Z,25.36
2023-05-25T14:19:49.658Z,25.4
2023-05-25T14:21:56.799Z,25.16
2023-05-25T14:23:49.607Z,25.23
2023-05-25T14:25:49.660Z,24.84
2023-05-25T14:28:43.949Z,24.47
2023-05-25T14:30:43.991Z,24.51
2023-05-25T14:32:43.941Z,24.66
2023-05-25T14:34:43.996Z,24.68
2023-05-25T14:36:43.953Z,24.45
2023-05-25T14:38:43.927Z,24.55
2023-05-25T14:40:43.916Z,24.39
2023-05-25T14:43:33.554Z,24.3
2023-05-25T14:45:33.547Z,24.37
2023-05-25T14:47:33.625Z,24.44
2023-05-25T14:49:33.656Z,24.17
2023-05-25T14:51:33.648Z,24.34
2023-05-25T14:53:33.706Z,24.37
2023-05-25T14:55:33.527Z,24.27
2023-05-25T14:57:33.694Z,24.26
2023-05-25T14:59:19.146Z,24.18
2023-05-25T15:01:19.181Z,24.16
2023-05-25T15:03:19.187Z,24.29
2023-05-25T15:05:19.082Z,24.19
2023-05-25T15:07:19.146Z,23.98
2023-05-25T15:09:19.296Z,23.86
2023-05-25T15:11:19.282Z,23.93
2023-05-25T15:14:37.521Z,24.17
2023-05-25T15:16:37.530Z,23.86
2023-05-25T15:18:37.500Z,24
2023-05-25T15:20:37.622Z,23.89
2023-05-25T15:22:37.494Z,23.96
2023-05-25T15:24:37.541Z,23.9
2023-05-25T15:26:37.503Z,23.86
2023-05-25T15:29:10.402Z,23.73
2023-05-25T15:31:10.473Z,23.76
2023-05-25T15:33:10.447Z,23.98
2023-05-25T15:35:10.474Z,24.01
2023-05-25T15:37:11.881Z,23.91
2023-05-25T15:39:10.416Z,23.79
2023-05-25T15:41:10.488Z,23.79
2023-05-25T15:44:53.532Z,23.64
2023-05-25T15:46:53.532Z,23.58
2023-05-25T15:48:53.563Z,23.6
2023-05-25T15:50:53.514Z,23.63
2023-05-25T15:52:53.855Z,23.38
2023-05-25T15:54:53.591Z,23.37
2023-05-25T15:56:53.567Z,23.36
2023-05-25T15:59:52.681Z,23.33
2023-05-25T16:01:52.647Z,23.24
2023-05-25T16:03:52.677Z,23.07
2023-05-25T16:05:52.620Z,22.48
2023-05-25T16:07:52.826Z,21.35
2023-05-25T16:09:52.610Z,21.36
2023-05-25T16:11:52.604Z,21.71
2023-05-25T16:14:45.549Z,22.02
2023-05-25T16:16:45.546Z,22.16
2023-05-25T16:18:45.498Z,21.8
2023-05-25T16:20:45.674Z,21.52
2023-05-25T16:22:45.446Z,21.46
2023-05-25T16:24:45.470Z,21.61
2023-05-25T16:26:45.492Z,21.81
2023-05-25T16:29:54.813Z,22.06
2023-05-25T16:31:55.141Z,22.21
2023-05-25T16:33:54.889Z,22.32
2023-05-25T16:35:54.824Z,22.37
2023-05-25T16:37:55.318Z,22.38
2023-05-25T16:39:55.093Z,22.38
2023-05-25T16:41:55.440Z,22.28
2023-05-25T16:45:44.137Z,22.34
2023-05-25T16:47:43.885Z,22.37
2023-05-25T16:49:43.977Z,22.39
2023-05-25T16:51:43.847Z,22.41
2023-05-25T16:53:43.854Z,22.4
2023-05-25T16:55:44.197Z,22.43
2023-05-25T16:57:43.873Z,22.43
2023-05-25T17:00:03.179Z,22.38
2023-05-25T17:02:03.165Z,22.37
2023-05-25T17:04:03.291Z,22.38
2023-05-25T17:06:03.147Z,22.33
2023-05-25T17:08:03.304Z,22.14
2023-05-25T17:10:03.177Z,21.73
2023-05-25T17:12:03.203Z,21.77
2023-05-25T17:14:03.120Z,21.72
2023-05-25T17:15:23.610Z,21.38
2023-05-25T17:17:24.210Z,21.28
2023-05-25T17:19:23.611Z,21.12
2023-05-25T17:21:23.606Z,21.28
2023-05-25T17:23:23.665Z,20.94
2023-05-25T17:25:23.658Z,20.14
2023-05-25T17:27:23.620Z,20.07
2023-05-25T17:30:37.828Z,20.19
2023-05-25T17:32:37.900Z,20.32
2023-05-25T17:34:37.844Z,19.44
2023-05-25T17:36:37.890Z,19.99
2023-05-25T17:38:37.826Z,20.39
2023-05-25T17:40:37.839Z,20.5
2023-05-25T17:42:37.840Z,19.87
2023-05-25T17:46:21.194Z,20
2023-05-25T17:48:21.137Z,20.04
2023-05-25T17:50:21.181Z,20
2023-05-25T17:52:21.163Z,20.13
2023-05-25T17:54:21.145Z,19.85
2023-05-25T17:56:21.141Z,19.98
2023-05-25T17:58:21.156Z,20.07
2023-05-25T18:01:18.079Z,19.85
2023-05-25T18:03:18.160Z,19.9
2023-05-25T18:05:18.061Z,19.9
2023-05-25T18:07:18.046Z,19.9
2023-05-25T18:09:18.108Z,19.77
2023-05-25T18:11:18.091Z,19.8
2023-05-25T18:13:18.682Z,19.78
2023-05-25T18:16:23.246Z,19.57
2023-05-25T18:18:23.250Z,19.41
2023-05-25T18:20:23.284Z,19.49
2023-05-25T18:22:23.238Z,19.39
2023-05-25T18:24:23.241Z,19.29
2023-05-25T18:26:23.188Z,19.3
2023-05-25T18:28:23.292Z,19.3
2023-05-25T18:31:40.373Z,19.3
2023-05-25T18:33:40.218Z,19.26
2023-05-25T18:35:40.282Z,19.2
2023-05-25T18:37:40.397Z,19.14
2023-05-25T18:39:40.438Z,19.12
2023-05-25T18:41:40.352Z,19.13
2023-05-25T18:43:40.227Z,19.06
2023-05-25T18:46:32.880Z,19.01
2023-05-25T18:48:32.735Z,19.01
2023-05-25T18:50:32.727Z,19.03
2023-05-25T18:52:32.840Z,18.98
2023-05-25T18:54:32.755Z,18.98
2023-05-25T18:56:32.752Z,18.94
2023-05-25T18:58:32.834Z,18.92
2023-05-25T19:01:49.005Z,18.84
2023-05-25T19:03:48.970Z,18.62
2023-05-25T19:05:48.890Z,18.7
2023-05-25T19:09:48.921Z,18.71
2023-05-25T19:11:48.878Z,18.7
2023-05-25T19:13:48.881Z,18.64
2023-05-25T19:16:47.327Z,18.55
2023-05-25T19:18:45.614Z,18.46
2023-05-25T19:20:45.588Z,18.38
2023-05-25T19:22:45.598Z,18.31
2023-05-25T19:24:48.690Z,18.28
2023-05-25T19:26:46.371Z,18.26
2023-05-25T19:28:45.580Z,18.22
2023-05-25T19:32:24.620Z,18.19
2023-05-25T19:34:24.443Z,18.11
2023-05-25T19:36:24.389Z,17.98
2023-05-25T19:38:26.562Z,18.01
2023-05-25T19:40:24.405Z,18.02
2023-05-25T19:42:24.514Z,18
2023-05-25T19:44:24.439Z,17.96
2023-05-25T19:46:54.757Z,17.88
2023-05-25T19:48:54.770Z,17.8
2023-05-25T19:50:54.781Z,17.78
2023-05-25T19:52:54.712Z,17.84
2023-05-25T19:54:54.849Z,17.85
2023-05-25T19:56:54.731Z,17.76
2023-05-25T19:58:54.729Z,17.71
2023-05-25T20:00:54.739Z,17.56
2023-05-25T20:02:04.805Z,17.53
2023-05-25T20:04:04.708Z,17.65
2023-05-25T20:06:04.736Z,17.67
2023-05-25T20:08:04.686Z,17.69
2023-05-25T20:10:04.730Z,17.7
2023-05-25T20:12:04.767Z,17.72
2023-05-25T20:14:04.709Z,17.64
2023-05-25T20:16:04.758Z,17.38
2023-05-25T20:17:32.004Z,17.35
2023-05-25T20:19:31.964Z,17.47
2023-05-25T20:21:31.986Z,17.42
2023-05-25T20:23:31.911Z,17.45
2023-05-25T20:25:31.938Z,17.39
2023-05-25T20:27:31.961Z,17.49
2023-05-25T20:29:31.924Z,17.49
2023-05-25T20:33:10.872Z,17.52
2023-05-25T20:35:10.869Z,17.4
2023-05-25T20:37:10.776Z,17.44
2023-05-25T20:39:10.834Z,17.43
2023-05-25T20:41:10.753Z,17.43
2023-05-25T20:43:10.793Z,17.45
2023-05-25T20:45:10.785Z,17.48
2023-05-25T20:47:37.542Z,17.51
2023-05-25T20:49:34.859Z,17.48
2023-05-25T20:51:34.808Z,17.48
2023-05-25T20:53:34.851Z,17.39
2023-05-25T20:55:34.805Z,17.31
2023-05-25T20:57:34.809Z,17.24
2023-05-25T20:59:34.816Z,17.17
2023-05-25T21:01:34.817Z,17.15
2023-05-25T21:03:00.251Z,17.11
2023-05-25T21:05:00.192Z,17.07
2023-05-25T21:07:00.123Z,17.06
2023-05-25T21:09:00.175Z,17.06
2023-05-25T21:11:00.159Z,17.03
2023-05-25T21:13:00.135Z,17.01
2023-05-25T21:15:00.168Z,16.8
2023-05-25T21:18:16.042Z,16.72
2023-05-25T21:20:16.053Z,16.68
2023-05-25T21:22:16.026Z,16.67
2023-05-25T21:24:15.986Z,16.63
2023-05-25T21:26:15.987Z,16.69
2023-05-25T21:28:15.972Z,16.76
2023-05-25T21:30:16.065Z,16.82
2023-05-25T21:33:32.790Z,16.77
2023-05-25T21:35:32.866Z,16.65
2023-05-25T21:37:33.160Z,16.64
2023-05-25T21:39:32.876Z,16.63
2023-05-25T21:41:32.880Z,16.52
2023-05-25T21:43:33.053Z,16.42
2023-05-25T21:45:33.077Z,16.38
2023-05-25T21:48:46.644Z,16.38
2023-05-25T21:50:46.653Z,16.36
2023-05-25T21:52:46.641Z,16.11
2023-05-25T21:54:46.642Z,16.13
2023-05-25T21:56:46.651Z,16.16
2023-05-25T21:58:46.637Z,16.2
2023-05-25T22:00:46.715Z,16.32
2023-05-25T22:04:03.570Z,16.35
2023-05-25T22:06:03.542Z,16.27
2023-05-25T22:08:03.526Z,16.33
2023-05-25T22:10:03.604Z,16.4
2023-05-25T22:12:03.552Z,16.42
2023-05-25T22:14:03.530Z,16.45
2023-05-25T22:16:03.865Z,16.44
2023-05-25T22:19:12.420Z,16.3
2023-05-25T22:21:12.436Z,16.33
2023-05-25T22:23:12.463Z,16.31
2023-05-25T22:25:12.433Z,16.34
2023-05-25T22:27:12.621Z,16.29
2023-05-25T22:29:12.418Z,16.22
2023-05-25T22:31:12.611Z,16.16
2023-05-25T22:34:18.576Z,16.21
2023-05-25T22:36:18.433Z,16.17
2023-05-25T22:38:18.488Z,16.03
2023-05-25T22:40:18.449Z,16.04
2023-05-25T22:42:18.484Z,16.04
2023-05-25T22:44:18.559Z,16
2023-05-25T22:46:18.499Z,16.02
2023-05-25T22:49:14.135Z,15.93
2023-05-25T22:51:14.098Z,15.94
2023-05-25T22:53:14.152Z,15.9
2023-05-25T22:55:14.151Z,15.82
2023-05-25T22:57:14.086Z,15.69
2023-05-25T22:59:14.049Z,15.65
2023-05-25T23:01:14.096Z,15.61
2023-05-25T23:04:40.144Z,15.55
2023-05-25T23:06:40.172Z,15.5
2023-05-25T23:08:40.128Z,15.48
2023-05-25T23:10:40.154Z,15.41
2023-05-25T23:12:40.124Z,15.36
2023-05-25T23:14:40.161Z,15.35
2023-05-25T23:16:40.268Z,15.31
2023-05-25T23:19:14.837Z,15.19
2023-05-25T23:21:14.909Z,15.25
2023-05-25T23:23:14.842Z,15.16
2023-05-25T23:25:14.828Z,15.12
2023-05-25T23:27:14.865Z,15.05
2023-05-25T23:29:14.820Z,15.02
2023-05-25T23:31:14.872Z,14.95
2023-05-25T23:33:14.811Z,14.92
2023-05-25T23:34:37.668Z,14.9
2023-05-25T23:36:37.664Z,14.89
2023-05-25T23:38:37.644Z,14.89
2023-05-25T23:40:37.750Z,14.85
2023-05-25T23:42:37.718Z,14.81
2023-05-25T23:44:37.574Z,14.73
2023-05-25T23:46:37.621Z,14.73
2023-05-25T23:50:13.844Z,14.67
2023-05-25T23:52:14.155Z,14.65
2023-05-25T23:54:13.994Z,14.59
2023-05-25T23:56:14.004Z,14.57
2023-05-25T23:58:13.999Z,14.54
